Time;durP1;ratioP1;P1;durP2;ratioP2;P2;SDS_P1;SDS_P2;PMS_P1;PMS_P2;Temp;Humidity;BMP_temperature;BMP_pressure;BME280_temperature;BME280_humidity;BME280_pressure;Samples;Min_cycle;Max_cycle;Signal;HPM_P1;HPM_P2
2022/12/07 00:01:46;;;;;;;;;;;8.80;99.90;;;9.08;82.58;101771.53;5113720;28;20075;-82
2022/12/07 00:04:17;;;;;;;18.75;5.22;;;8.90;99.90;;;9.11;82.04;101761.06;5114220;28;19919;-84
2022/12/07 00:06:48;;;;;;;13.13;5.57;;;8.90;99.90;;;9.19;82.13;101754.16;5113927;28;20046;-75
2022/12/07 00:09:19;;;;;;;13.60;5.20;;;8.90;99.90;;;9.26;81.20;101757.75;5113414;28;20071;-75
2022/12/07 00:11:51;;;;;;;9.35;4.80;;;9.10;99.90;;;9.26;81.15;101750.72;5113574;28;20047;-75
2022/12/07 00:14:21;;;;;;;15.60;5.80;;;9.10;99.90;;;9.09;80.82;101728.47;5113956;28;20048;-75
2022/12/07 00:16:51;;;;;;;12.90;5.43;;;9.10;99.90;;;9.00;80.90;101712.50;5113470;28;20572;-76
2022/12/07 00:19:20;;;;;;;13.10;4.95;;;9.00;99.90;;;9.17;80.75;101741.78;5095478;28;20058;-76
2022/12/07 00:21:48;;;;;;;14.85;6.38;;;9.00;99.90;;;9.22;80.45;101748.00;5113426;28;20113;-75
2022/12/07 00:24:18;;;;;;;10.73;5.15;;;9.10;99.90;;;9.17;80.47;101755.88;5113363;28;20436;-75
2022/12/07 00:26:46;;;;;;;10.00;5.60;;;9.00;99.90;;;9.18;80.74;101747.06;5113970;28;20042;-75
2022/12/07 00:29:18;;;;;;;10.60;6.15;;;9.00;99.90;;;9.18;80.04;101741.78;5095074;28;20078;-75
2022/12/07 00:31:47;;;;;;;11.70;5.78;;;9.00;99.90;;;9.10;79.87;101733.75;5113368;28;20044;-75
2022/12/07 00:34:18;;;;;;;13.65;5.70;;;9.00;99.90;;;9.21;79.58;101735.69;5095204;28;20569;-75
2022/12/07 00:36:47;;;;;;;8.68;6.13;;;9.00;99.90;;;8.84;79.84;101734.22;5113270;28;20070;-75
2022/12/07 00:39:16;;;;;;;10.75;6.55;;;8.80;99.90;;;8.75;79.86;101728.81;5113283;28;20032;-74
2022/12/07 00:41:45;;;;;;;11.95;6.40;;;8.60;99.90;;;8.68;79.73;101722.53;5113264;28;20040;-75
2022/12/07 00:44:13;;;;;;;12.05;7.28;;;8.60;99.90;;;8.63;79.93;101728.59;5095163;28;20046;-75
2022/12/07 00:46:42;;;;;;;9.88;6.10;;;8.40;99.90;;;8.40;80.11;101708.84;5113706;28;20366;-75
2022/12/07 00:49:10;;;;;;;10.38;6.68;;;8.40;99.90;;;8.66;80.00;101731.25;5113099;28;20036;-74
2022/12/07 00:51:38;;;;;;;13.25;6.35;;;8.40;99.90;;;8.53;79.77;101731.91;5113405;28;20051;-75
2022/12/07 00:54:07;;;;;;;8.60;6.20;;;8.30;99.90;;;8.40;80.34;101724.66;5113379;28;20469;-75
2022/12/07 00:56:36;;;;;;;11.20;5.97;;;8.20;99.90;;;8.40;79.88;101738.69;5113359;28;20036;-75
2022/12/07 00:59:05;;;;;;;13.68;5.90;;;8.20;99.90;;;8.26;80.26;101718.25;5095111;28;20044;-74
2022/12/07 01:01:37;;;;;;;10.00;6.47;;;8.10;99.90;;;8.29;80.60;101729.72;5113054;28;20405;-74
2022/12/07 01:04:06;;;;;;;11.88;7.00;;;8.10;99.90;;;8.19;80.24;101723.38;5113301;28;20047;-73
2022/12/07 01:06:35;;;;;;;11.18;6.85;;;8.10;99.90;;;7.94;80.27;101701.78;5113246;28;20439;-74
2022/12/07 01:09:04;;;;;;;10.75;6.70;;;8.00;99.90;;;8.03;80.51;101734.47;5112936;28;20475;-74
2022/12/07 01:11:33;;;;;;;9.98;6.40;;;7.90;99.90;;;7.99;80.42;101731.75;5094895;28;20050;-74
2022/12/07 01:14:03;;;;;;;8.60;6.07;;;7.80;99.90;;;7.93;80.19;101731.63;5116137;28;20055;-73
2022/12/07 01:16:33;;;;;;;11.20;5.88;;;7.70;99.90;;;7.86;80.28;101727.97;5116597;28;20135;-74
2022/12/07 01:19:04;;;;;;;7.10;6.18;;;7.60;99.90;;;7.76;80.23;101723.38;5098634;28;20374;-74
2022/12/07 01:21:37;;;;;;;8.80;5.93;;;7.60;99.90;;;7.57;79.97;101729.09;5116581;28;20074;-74
2022/12/07 01:24:10;;;;;;;9.50;5.70;;;7.40;99.90;;;7.58;79.52;101728.25;5116465;28;20089;-74
2022/12/07 01:26:39;;;;;;;9.35;6.32;;;7.40;99.90;;;7.53;79.79;101727.25;5116730;28;20048;-74
2022/12/07 01:29:09;;;;;;;7.68;6.13;;;7.30;99.90;;;7.38;79.79;101719.03;5116375;28;20079;-74
2022/12/07 01:31:37;;;;;;;7.67;5.30;;;7.30;99.90;;;7.42;79.88;101723.50;5116355;28;20047;-74
2022/12/07 01:34:05;;;;;;;6.78;5.88;;;7.20;99.90;;;7.43;79.79;101727.03;5116282;28;20401;-74
2022/12/07 01:36:36;;;;;;;9.85;5.65;;;7.20;99.90;;;7.38;80.05;101720.78;5116158;28;20460;-74
2022/12/07 01:39:07;;;;;;;7.25;6.18;;;7.20;99.90;;;7.31;80.84;101732.94;5098182;28;20552;-74
2022/12/07 01:41:40;;;;;;;8.95;6.00;;;7.10;99.90;;;7.30;81.08;101725.88;5116178;28;20063;-74
2022/12/07 01:44:17;;;;;;;10.20;6.10;;;7.10;99.90;;;7.30;81.13;101715.34;5116344;28;20048;-74
2022/12/07 01:46:48;;;;;;;13.25;5.28;;;7.10;99.90;;;7.41;81.65;101732.28;5098073;28;20397;-74
2022/12/07 01:49:24;;;;;;;13.80;5.50;;;7.10;99.90;;;7.68;81.88;101724.97;5116648;28;20447;-74
2022/12/07 01:51:58;;;;;;;13.15;5.47;;;7.40;99.90;;;7.98;82.20;101735.22;5097931;28;20050;-74
2022/12/07 01:54:27;;;;;;;11.55;4.78;;;7.70;99.90;;;8.13;81.62;101732.88;5116151;28;20396;-74
2022/12/07 01:56:58;;;;;;;10.00;4.97;;;7.90;99.90;;;8.23;81.30;101733.09;5115944;28;20047;-74
2022/12/07 01:59:28;;;;;;;11.30;4.45;;;8.00;99.90;;;8.29;81.46;101731.47;5115852;28;20434;-74
2022/12/07 02:01:57;;;;;;;12.75;4.53;;;8.10;99.90;;;8.42;81.64;101728.22;5115722;28;20048;-74
2022/12/07 02:04:26;;;;;;;17.05;4.97;;;8.20;99.90;;;8.48;81.02;101730.97;5115611;28;20036;-73
2022/12/07 02:06:55;;;;;;;15.65;4.90;;;8.30;99.90;;;8.63;81.08;101728.59;5097690;28;20469;-74
2022/12/07 02:09:24;;;;;;;15.55;4.93;;;8.40;99.90;;;8.70;80.97;101719.91;5115586;28;20047;-74
2022/12/07 02:11:53;;;;;;;15.65;5.60;;;8.50;99.90;;;8.79;80.65;101717.41;5116084;28;20385;-74
2022/12/07 02:14:22;;;;;;;23.33;5.43;;;8.60;99.90;;;8.85;80.34;101718.41;5115500;28;20382;-74
2022/12/07 02:17:09;;;;;;;13.60;4.63;;;8.60;99.90;;;8.89;79.97;101719.34;5115402;28;20044;-74
2022/12/07 02:20:14;;;;;;;7.18;4.80;;;8.60;99.90;;;8.95;79.72;101706.25;5115419;28;20040;-73
2022/12/07 02:23:31;;;;;;;13.20;4.68;;;8.70;99.90;;;9.04;79.41;101717.84;5115358;28;20075;-73
2022/12/07 02:26:50;;;;;;;13.52;5.03;;;8.80;99.90;;;9.03;79.39;101717.81;5114203;28;20400;-74
2022/12/07 02:29:24;;;;;;;9.93;4.60;;;8.70;99.90;;;8.98;79.37;101709.81;5114892;28;20048;-74
2022/12/07 02:32:04;;;;;;;13.50;5.30;;;8.70;99.90;;;8.84;79.07;101716.66;5115141;28;20044;-74
2022/12/07 02:34:45;;;;;;;9.43;4.30;;;8.60;99.90;;;8.83;79.00;101709.59;5114751;28;20067;-75
2022/12/07 02:37:28;;;;;;;11.27;5.03;;;8.60;99.90;;;8.75;78.86;101702.44;5114887;28;20078;-75
2022/12/07 02:40:01;;;;;;;10.75;4.93;;;8.50;99.90;;;8.65;79.13;101711.91;5114794;28;20409;-74
2022/12/07 02:42:38;;;;;;;13.15;5.15;;;8.40;99.90;;;8.62;79.17;101705.69;5114830;28;20043;-74
2022/12/07 02:45:09;;;;;;;15.45;5.25;;;8.30;99.90;;;8.62;79.02;101710.97;5114927;28;20071;-75
2022/12/07 02:47:38;;;;;;;14.77;5.85;;;8.30;99.90;;;8.50;79.55;101702.84;5114802;28;20055;-75
2022/12/07 02:50:09;;;;;;;14.77;5.32;;;8.20;99.90;;;8.52;79.37;101703.75;5114288;28;20084;-75
2022/12/07 02:52:37;;;;;;;10.88;5.28;;;8.20;99.90;;;8.58;78.92;101707.41;5114403;28;20089;-75
2022/12/07 02:55:08;;;;;;;10.20;4.93;;;8.30;99.90;;;8.42;78.96;101708.00;5114215;28;20087;-74
2022/12/07 02:57:55;;;;;;;11.73;6.05;;;8.20;99.90;;;8.40;79.41;101717.63;5114765;28;20085;-75
2022/12/07 03:00:25;;;;;;;10.93;5.03;;;8.20;99.90;;;8.38;79.62;101713.19;5096083;28;20047;-75
2022/12/07 03:02:59;;;;;;;11.97;5.33;;;8.20;99.90;;;8.32;79.15;101713.09;5114098;28;20047;-75
2022/12/07 03:06:04;;;;;;;10.57;4.38;;;8.10;99.90;;;8.30;78.90;101712.16;5114592;28;20051;-74
2022/12/07 03:08:49;;;;;;;10.32;4.75;;;8.10;99.90;;;7.76;79.06;101619.81;5114148;28;20070;-74
2022/12/07 03:11:27;;;;;;;14.02;4.57;;;8.10;99.90;;;8.46;79.11;101723.00;5114161;28;20130;-75
2022/12/07 03:14:03;;;;;;;12.98;4.68;;;8.20;99.90;;;8.53;78.59;101716.09;5114064;28;20164;-74
2022/12/07 03:16:38;;;;;;;10.00;4.63;;;8.20;99.90;;;8.55;78.70;101707.38;5113969;28;20039;-75
2022/12/07 03:19:10;;;;;;;9.85;4.65;;;8.40;99.90;;;8.61;78.62;101703.94;5114012;28;20100;-75
2022/12/07 03:21:42;;;;;;;16.25;4.80;;;8.40;99.90;;;8.70;78.40;101715.53;5113744;28;20043;-73
2022/12/07 03:24:14;;;;;;;8.88;4.45;;;8.40;99.90;;;8.73;78.40;101706.78;5113882;28;20077;-73
2022/12/07 03:26:47;;;;;;;11.35;4.15;;;8.50;99.90;;;8.77;78.45;101700.66;5113520;28;20497;-73
2022/12/07 03:29:28;;;;;;;13.32;4.78;;;8.50;99.90;;;8.68;78.02;101700.53;5113459;28;20542;-73
2022/12/07 03:32:01;;;;;;;;;;;8.50;99.90;;;8.77;78.26;101709.47;5095749;28;20499;-73
2022/12/07 03:34:36;;;;;;;10.98;4.30;;;8.60;99.90;;;8.74;77.51;101705.91;5113284;28;20414;-73
2022/12/07 03:37:09;;;;;;;10.50;4.43;;;8.60;99.90;;;8.85;77.91;101712.25;5113600;28;20035;-73
2022/12/07 03:39:44;;;;;;;11.45;4.40;;;8.60;99.90;;;8.73;78.16;101698.88;5113345;28;20047;-74
2022/12/07 03:42:13;;;;;;;9.90;5.03;;;8.50;99.90;;;8.68;78.43;101708.44;5113208;28;20043;-73
2022/12/07 03:44:42;;;;;;;11.40;4.75;;;8.50;99.90;;;8.08;78.68;101585.28;5113217;28;20046;-73
2022/12/07 03:47:20;;;;;;;15.32;4.47;;;8.50;99.90;;;8.77;78.74;101695.41;5113219;28;20085;-73
2022/12/07 03:49:55;;;;;;;12.23;4.53;;;8.40;99.90;;;8.68;78.69;101672.41;5095354;28;20503;-73
2022/12/07 03:52:29;;;;;;;9.82;4.30;;;8.60;99.90;;;8.94;78.61;101693.94;5113170;28;20556;-73
2022/12/07 03:55:01;;;;;;;13.27;4.55;;;8.70;99.90;;;8.97;78.63;101689.59;5113435;28;20051;-73
2022/12/07 03:57:31;;;;;;;8.55;4.15;;;8.70;99.90;;;8.95;78.49;101699.22;5112996;28;20041;-73
2022/12/07 04:00:00;;;;;;;14.73;4.80;;;8.70;99.90;;;8.68;78.29;101669.78;5113288;28;20047;-73
2022/12/07 04:02:41;;;;;;;11.15;4.53;;;8.70;99.90;;;8.82;78.41;101699.91;5112989;28;20040;-73
2022/12/07 04:05:10;;;;;;;7.57;4.28;;;8.60;99.90;;;8.73;78.73;101693.59;5094884;28;20058;-73
2022/12/07 04:07:39;;;;;;;7.03;3.97;;;8.50;99.90;;;8.71;78.57;101696.19;5112872;28;20096;-73
2022/12/07 04:10:08;;;;;;;9.95;4.40;;;8.50;99.90;;;8.75;78.86;101694.50;5112833;28;20036;-73
2022/12/07 04:12:37;;;;;;;9.23;4.30;;;8.50;99.90;;;8.81;78.44;101694.59;5112853;28;20047;-73
2022/12/07 04:15:07;;;;;;;7.15;3.60;;;8.50;99.90;;;8.81;78.14;101686.66;5112780;28;20400;-73
2022/12/07 04:17:36;;;;;;;9.45;4.68;;;8.60;99.90;;;8.77;78.13;101680.47;5112828;28;20043;-73
2022/12/07 04:20:08;;;;;;;10.95;4.57;;;8.50;99.90;;;8.63;77.95;101687.25;5113170;28;20047;-73
2022/12/07 04:22:36;;;;;;;7.60;4.32;;;8.50;99.90;;;8.48;78.13;101665.91;5113039;28;20473;-73
2022/12/07 04:25:06;;;;;;;8.98;4.88;;;8.40;99.90;;;8.55;78.56;101686.28;5112699;28;20031;-72
2022/12/07 04:27:34;;;;;;;14.83;5.17;;;8.30;99.90;;;8.55;78.59;101688.91;5113239;28;20050;-73
2022/12/07 04:30:04;;;;;;;13.77;5.43;;;8.30;99.90;;;8.51;78.90;101686.19;5112656;28;20282;-73
2022/12/07 04:32:32;;;;;;;14.88;5.43;;;8.30;99.90;;;8.55;78.43;101681.00;5112673;28;20036;-73
2022/12/07 04:35:01;;;;;;;8.13;5.35;;;8.30;99.90;;;8.55;78.65;101675.72;5112898;28;20056;-73
2022/12/07 04:37:30;;;;;;;9.40;4.75;;;8.30;99.90;;;7.97;78.45;101578.06;5112535;28;20036;-74
2022/12/07 04:39:59;;;;;;;9.88;4.35;;;8.30;99.90;;;8.13;78.23;101593.22;5112602;28;20039;-73
2022/12/07 04:42:28;;;;;;;9.68;5.80;;;8.40;99.90;;;8.52;78.18;101674.75;5112517;28;20517;-73
2022/12/07 04:44:57;;;;;;;14.50;4.88;;;8.30;99.90;;;8.62;78.21;101676.69;5112469;28;20454;-73
2022/12/07 04:47:25;;;;;;;8.98;5.35;;;8.30;99.90;;;8.55;78.04;101661.66;5113273;28;20044;-73
2022/12/07 04:49:53;;;;;;;15.60;5.30;;;8.30;99.90;;;8.49;77.98;101667.72;5117039;28;20138;-74
2022/12/07 04:52:22;;;;;;;8.60;5.00;;;8.30;99.90;;;8.45;78.10;101655.34;5116740;28;20481;-73
2022/12/07 04:54:51;;;;;;;12.90;5.07;;;8.20;99.90;;;8.51;78.01;101657.19;5116990;28;20580;-73
2022/12/07 04:57:20;;;;;;;12.87;5.23;;;8.30;99.90;;;8.47;77.81;101652.72;5116263;28;20039;-73
2022/12/07 04:59:48;;;;;;;11.95;5.53;;;8.20;99.90;;;8.45;77.94;101659.72;5116371;28;20295;-73
2022/12/07 05:02:16;;;;;;;10.88;4.90;;;8.20;99.90;;;8.40;77.56;101648.22;5116597;28;20054;-73
2022/12/07 05:04:45;;;;;;;10.20;4.93;;;8.20;99.90;;;8.38;77.25;101644.66;5116599;28;20039;-73
2022/12/07 05:07:13;;;;;;;10.82;4.93;;;8.20;99.90;;;8.27;77.47;101628.66;5098298;28;20043;-72
2022/12/07 05:09:41;;;;;;;11.57;4.72;;;8.20;99.90;;;8.54;76.91;101651.94;5116298;28;20092;-73
2022/12/07 05:12:11;;;;;;;8.63;4.65;;;8.20;99.90;;;8.59;76.64;101647.66;5116565;28;20040;-73
2022/12/07 05:14:39;;;;;;;6.80;4.40;;;8.30;99.90;;;8.42;76.26;101621.00;5116527;28;20036;-73
2022/12/07 05:17:07;;;;;;;12.38;4.95;;;8.30;99.90;;;8.54;76.13;101644.03;5098002;28;20565;-73
2022/12/07 05:19:35;;;;;;;9.30;5.05;;;8.30;99.90;;;8.45;76.30;101634.25;5116601;28;20028;-73
2022/12/07 05:22:04;;;;;;;11.52;5.03;;;8.30;99.90;;;8.37;76.50;101650.78;5116396;28;20055;-73
2022/12/07 05:24:32;;;;;;;8.43;4.00;;;8.20;99.90;;;8.36;76.65;101655.19;5116298;28;20100;-74
2022/12/07 05:27:00;;;;;;;10.55;4.68;;;8.20;99.90;;;8.26;76.71;101647.09;5116003;28;20040;-74
2022/12/07 05:29:30;;;;;;;9.85;4.68;;;8.10;99.90;;;8.07;76.66;101654.63;5115649;28;20058;-72
2022/12/07 05:31:59;;;;;;;13.32;4.93;;;7.90;99.90;;;8.02;76.95;101656.28;5097816;28;20159;-72
2022/12/07 05:34:27;;;;;;;7.20;4.63;;;7.80;99.90;;;8.16;76.94;101657.44;5115854;28;20047;-73
2022/12/07 05:36:55;;;;;;;11.07;4.20;;;7.90;99.90;;;8.26;76.90;101652.34;5116034;28;20510;-73
2022/12/07 05:39:24;;;;;;;13.68;5.30;;;7.90;99.90;;;8.30;76.51;101660.34;5115762;28;20039;-73
2022/12/07 05:44:39;;;;;;;16.65;5.32;;;8.10;99.90;;;8.35;76.08;101653.41;5115778;28;20122;-72
2022/12/07 05:47:08;;;;;;;11.98;4.35;;;8.10;99.90;;;8.17;76.19;101646.03;5116165;28;20043;-72
2022/12/07 05:49:36;;;;;;;12.27;4.30;;;8.00;99.90;;;8.07;75.72;101646.72;5097979;28;20059;-72
2022/12/07 05:52:05;;;;;;;7.97;4.50;;;7.90;99.90;;;8.25;75.61;101655.84;5115807;28;20067;-73
2022/12/07 05:54:34;;;;;;;9.57;4.43;;;8.00;99.90;;;8.25;75.63;101653.19;5115412;28;20080;-73
2022/12/07 05:57:02;;;;;;;9.05;4.50;;;8.00;99.90;;;7.88;74.58;101646.34;5115557;28;20058;-73
2022/12/07 05:59:30;;;;;;;10.20;4.68;;;7.70;99.90;;;7.88;74.64;101655.13;5114248;28;20039;-72
2022/12/07 06:02:02;;;;;;;8.55;4.53;;;7.60;99.90;;;7.77;74.88;101654.06;5115417;28;20130;-73
2022/12/07 06:04:35;;;;;;;9.32;4.32;;;7.60;99.90;;;7.40;75.12;101654.16;5115375;28;20044;-74
2022/12/07 06:07:04;;;;;;;11.52;4.70;;;7.30;99.90;;;7.21;75.67;101652.91;5115371;28;20043;-73
2022/12/07 06:09:33;;;;;;;7.60;3.88;;;7.00;99.90;;;7.23;76.22;101650.28;5115558;28;20040;-73
2022/12/07 06:14:48;;;;;;;10.15;4.55;;;7.10;99.90;;;7.49;76.32;101646.44;5115047;28;20047;-73
2022/12/07 06:17:18;;;;;;;10.25;4.55;;;7.20;99.90;;;7.31;76.19;101635.56;5115080;28;20043;-73
2022/12/07 06:19:46;;;;;;;12.02;5.20;;;7.10;99.90;;;7.35;76.15;101645.31;5115485;28;20044;-73
2022/12/07 06:22:15;;;;;;;14.00;5.30;;;7.10;99.90;;;7.35;76.24;101641.78;5114761;28;20100;-73
2022/12/07 06:24:44;;;;;;;11.00;4.82;;;7.00;99.90;;;7.43;76.62;101638.47;5115028;28;20118;-73
2022/12/07 06:27:13;;;;;;;8.40;4.57;;;7.20;99.90;;;7.63;76.69;101652.88;5114655;28;20040;-73
2022/12/07 06:29:41;;;;;;;11.40;5.07;;;7.30;99.90;;;7.61;76.27;101644.06;5114276;28;20073;-73
2022/12/07 06:32:09;;;;;;;15.38;5.05;;;7.40;99.90;;;7.64;76.65;101654.69;5096505;28;20052;-73
2022/12/07 06:34:39;;;;;;;13.23;4.72;;;7.50;99.90;;;7.79;77.16;101648.81;5114687;28;20123;-73
2022/12/07 06:37:08;;;;;;;10.63;4.90;;;7.50;99.90;;;7.84;76.92;101655.94;5114339;28;20048;-73
2022/12/07 06:39:36;;;;;;;11.95;4.50;;;7.60;99.90;;;7.72;76.52;101637.28;5114332;28;20525;-73
2022/12/07 06:42:05;;;;;;;10.63;4.78;;;7.60;99.90;;;7.87;77.11;101650.75;5114568;28;20043;-68
2022/12/07 06:44:33;;;;;;;21.75;5.40;;;7.60;99.90;;;7.87;77.23;101649.84;5114267;28;20040;-70
2022/12/07 06:47:02;;;;;;;13.73;4.63;;;7.60;99.90;;;7.95;77.28;101645.63;5114244;28;20047;-72
2022/12/07 06:49:51;;;;;;;10.95;4.57;;;7.70;99.90;;;8.01;76.95;101651.88;5114373;28;20491;-73
2022/12/07 06:52:19;;;;;;;10.57;4.88;;;7.70;99.90;;;8.04;77.29;101651.94;5114074;28;20043;-72
2022/12/07 06:54:48;;;;;;;13.07;5.10;;;7.80;99.90;;;8.08;77.04;101661.69;5114242;28;20048;-71
2022/12/07 06:57:16;;;;;;;9.07;4.78;;;7.80;99.90;;;8.14;76.96;101653.00;5114191;28;20040;-71
2022/12/07 06:59:44;;;;;;;8.88;4.38;;;7.90;99.90;;;8.21;76.80;101655.75;5114175;28;20131;-72
2022/12/07 07:02:13;;;;;;;11.90;4.30;;;7.90;99.90;;;8.14;76.41;101648.63;5114344;28;20451;-73
2022/12/07 07:04:41;;;;;;;18.55;5.60;;;7.90;99.90;;;8.16;76.40;101646.91;5114435;28;20051;-71
2022/12/07 07:07:11;;;;;;;12.02;4.80;;;8.00;99.90;;;8.24;76.28;101654.94;5113775;28;20043;-72
2022/12/07 07:09:39;;;;;;;11.87;4.60;;;7.90;99.90;;;8.28;76.06;101656.81;5114173;28;20397;-70
2022/12/07 07:12:07;;;;;;;8.52;4.30;;;8.10;99.90;;;8.30;75.92;101654.19;5114147;28;20061;-70
2022/12/07 07:14:36;;;;;;;8.43;4.40;;;8.00;99.90;;;8.21;76.17;101657.50;5114219;28;20361;-71
2022/12/07 07:17:04;;;;;;;10.57;4.22;;;7.90;99.90;;;8.21;76.82;101650.50;5113848;28;20389;-71
2022/12/07 07:19:33;;;;;;;11.15;5.18;;;7.90;99.90;;;8.36;76.40;101662.22;5113850;28;20122;-70
2022/12/07 07:22:01;;;;;;;13.23;4.72;;;8.10;99.90;;;8.37;76.28;101663.97;5113764;28;20039;-70
2022/12/07 07:24:31;;;;;;;10.30;4.40;;;8.20;99.90;;;7.70;76.10;101544.22;5113718;28;20214;-70
2022/12/07 07:26:59;;;;;;;10.82;4.60;;;8.20;99.90;;;8.40;76.60;101661.41;5095463;28;20043;-70
2022/12/07 07:29:28;;;;;;;9.18;4.35;;;8.20;99.90;;;8.46;76.35;101666.78;5113370;28;20055;-70
2022/12/07 07:31:56;;;;;;;14.23;4.82;;;8.20;99.90;;;8.51;76.07;101662.47;5113356;28;20130;-70
2022/12/07 07:34:32;;;;;;;12.93;4.75;;;8.30;99.90;;;8.46;76.07;101651.81;5113379;28;20400;-71
2022/12/07 07:37:01;;;;;;;8.38;4.28;;;8.30;99.90;;;8.46;76.06;101641.28;5113448;28;20398;-71
2022/12/07 07:39:30;;;;;;;7.68;4.88;;;8.30;99.90;;;8.59;75.73;101660.84;5113104;28;20044;-71
2022/12/07 07:41:59;;;;;;;8.27;4.30;;;8.40;99.90;;;8.66;75.69;101670.59;5113236;28;20047;-71
2022/12/07 07:44:28;;;;;;;11.07;4.25;;;8.40;99.90;;;8.59;75.78;101679.28;5094877;28;20054;-70
2022/12/07 07:47:03;;;;;;;8.60;4.60;;;8.40;99.90;;;8.62;76.20;101672.31;5113530;28;20110;-71
2022/12/07 07:49:31;;;;;;;11.38;4.97;;;8.40;99.90;;;8.56;76.52;101663.41;5113041;28;20046;-71
2022/12/07 07:51:59;;;;;;;10.05;4.43;;;8.30;99.90;;;8.49;76.71;101659.81;5113112;28;20486;-71
2022/12/07 07:54:28;;;;;;;11.63;4.63;;;8.30;99.90;;;8.60;76.77;101671.41;5113162;28;20373;-71
2022/12/07 07:56:58;;;;;;;9.02;4.75;;;8.40;99.90;;;8.60;77.57;101663.50;5113194;28;20040;-70
2022/12/07 07:59:26;;;;;;;7.43;4.23;;;8.40;99.90;;;8.58;78.07;101672.22;5095030;28;20056;-70
2022/12/07 08:01:55;;;;;;;11.25;4.78;;;8.30;99.90;;;8.66;78.11;101660.06;5113336;28;20661;-69
2022/12/07 08:04:23;;;;;;;13.02;4.93;;;8.40;99.90;;;8.77;77.89;101674.28;5113475;28;20035;-71
2022/12/07 08:06:52;;;;;;;11.80;5.13;;;8.50;99.90;;;8.86;78.04;101669.19;5113537;28;20070;-71
2022/12/07 08:09:20;;;;;;;16.60;4.80;;;8.60;99.90;;;8.95;78.11;101671.94;5113288;28;20134;-70
2022/12/07 08:11:48;;;;;;;23.17;5.18;;;8.70;99.90;;;8.90;77.93;101668.38;5113705;28;20036;-71
2022/12/07 08:14:18;;;;;;;13.68;4.78;;;8.70;99.90;;;8.94;77.78;101673.69;5113184;28;20035;-70
2022/12/07 08:16:46;;;;;;;9.67;4.43;;;8.70;99.90;;;8.93;77.89;101678.97;5114000;28;20044;-75
2022/12/07 08:19:15;;;;;;;8.57;4.63;;;8.70;99.90;;;8.91;78.32;101672.75;5113628;28;20134;-86
2022/12/07 08:21:43;;;;;;;8.88;4.47;;;8.70;99.90;;;8.86;78.44;101667.44;5112902;28;20063;-78
2022/12/07 08:24:11;;;;;;;10.88;4.95;;;8.70;99.90;;;8.99;78.29;101676.41;5116611;28;20067;-80
2022/12/07 08:26:39;;;;;;;12.13;4.60;;;8.70;99.90;;;8.99;78.66;101676.41;5117657;28;20044;-75
2022/12/07 08:29:08;;;;;;;8.30;5.28;;;8.70;99.90;;;9.14;78.58;101670.50;5116870;28;20078;-72
2022/12/07 08:31:39;;;;;;;9.02;4.65;;;8.90;99.90;;;9.21;78.88;101672.34;5117192;28;20710;-71
2022/12/07 08:34:08;;;;;;;9.10;4.70;;;9.00;99.90;;;9.39;79.51;101673.47;5117034;28;20048;-75
2022/12/07 08:36:37;;;;;;;8.27;4.78;;;9.10;99.90;;;9.36;78.71;101680.47;5116985;28;20036;-74
2022/12/07 08:39:06;;;;;;;11.68;5.82;;;9.20;99.90;;;9.38;78.52;101681.38;5116990;28;20380;-75
2022/12/07 08:41:54;;;;;;;11.18;5.82;;;9.20;99.90;;;9.23;78.37;101695.25;5116774;28;20482;-72
2022/12/07 08:44:22;;;;;;;13.40;5.63;;;9.10;99.90;;;8.83;79.86;101692.84;5098878;28;20038;-75
2022/12/07 08:46:57;;;;;;;9.13;4.90;;;8.70;99.90;;;8.86;80.21;101685.00;5116841;28;20042;-75
2022/12/07 08:49:31;;;;;;;11.52;4.57;;;8.60;99.90;;;8.86;79.46;101685.00;5116816;28;20523;-72
2022/12/07 08:52:00;;;;;;;5.88;4.07;;;8.70;99.90;;;9.10;79.56;101685.38;5116769;28;20505;-72
2022/12/07 08:54:30;;;;;;;7.53;3.80;;;8.80;99.90;;;9.36;78.84;101675.19;5116700;28;20447;-73
2022/12/07 08:56:58;;;;;;;6.82;3.72;;;9.00;99.90;;;9.37;78.13;101672.56;5116543;28;20031;-72
2022/12/07 08:59:28;;;;;;;6.57;4.10;;;9.20;99.90;;;9.40;78.16;101684.91;5116707;28;20146;-80
2022/12/07 09:01:58;;;;;;;8.90;4.37;;;9.20;99.90;;;9.32;77.73;101670.72;5116429;28;20067;-81
2022/12/07 09:04:27;;;;;;;10.18;4.63;;;9.20;99.90;;;9.21;77.88;101686.44;5098121;28;20350;-80
2022/12/07 09:06:56;;;;;;;11.77;4.40;;;9.00;99.90;;;9.24;78.01;101680.28;5116535;28;20057;-81
2022/12/07 09:09:24;;;;;;;6.63;4.07;;;9.00;99.90;;;9.14;77.69;101659.94;5116424;28;20039;-78
2022/12/07 09:11:53;;;;;;;7.20;4.35;;;9.00;99.90;;;9.19;78.08;101684.63;5098348;28;20047;-81
2022/12/07 09:14:21;;;;;;;8.68;3.92;;;8.90;99.90;;;9.15;78.15;101678.41;5116243;28;20401;-81
2022/12/07 09:16:50;;;;;;;7.53;3.97;;;8.90;99.90;;;9.10;77.86;101669.53;5116284;28;20434;-82
2022/12/07 09:19:19;;;;;;;11.80;4.05;;;8.90;99.90;;;8.90;78.62;101660.47;5116071;28;20047;-82
2022/12/07 09:21:48;;;;;;;7.33;4.17;;;8.80;99.90;;;9.03;79.59;101667.69;5116238;28;20488;-82
2022/12/07 09:24:16;;;;;;;7.93;4.03;;;8.80;99.90;;;8.90;80.15;101671.88;5116158;28;20061;-81
2022/12/07 09:26:44;;;;;;;11.55;4.57;;;8.80;99.90;;;9.13;80.01;101660.78;5098022;28;20143;-83
2022/12/07 09:29:13;;;;;;;8.77;4.28;;;8.90;99.90;;;8.99;80.12;101671.13;5115883;28;20481;-82
2022/12/07 09:31:41;;;;;;;6.53;4.05;;;8.80;99.90;;;9.26;80.31;101671.53;5116408;28;20067;-81
2022/12/07 09:34:10;;;;;;;8.82;4.53;;;9.00;99.90;;;9.49;81.63;101675.34;5115981;28;20089;-83
2022/12/07 09:36:42;;;;;;;7.55;4.78;;;9.20;99.90;;;9.93;82.68;101678.50;5116249;28;20075;-82
2022/12/07 09:39:10;;;;;;;8.73;4.57;;;9.60;99.90;;;10.47;82.01;101672.97;5116319;28;20392;-83
2022/12/07 09:41:41;;;;;;;12.60;4.97;;;10.10;99.90;;;11.07;80.42;101675.19;5115638;28;20104;-76
2022/12/07 09:44:14;;;;;;;9.50;4.47;;;10.80;99.90;;;11.60;78.00;101677.22;5116372;28;20065;-75
2022/12/07 09:46:45;;;;;;;10.98;4.57;;;11.30;99.90;;;12.12;76.48;101682.72;5115999;28;20047;-84
2022/12/07 09:49:19;;;;;;;7.47;4.07;;;11.80;99.90;;;12.50;75.10;101654.50;5115943;28;20082;-76
2022/12/07 09:52:01;;;;;;;12.02;4.65;;;12.40;99.90;;;13.03;73.13;101688.97;5115924;28;20046;-77
2022/12/07 09:54:31;;;;;;;12.45;4.40;;;12.80;99.90;;;12.56;71.14;101554.53;5115687;28;20441;-78
2022/12/07 09:57:00;;;;;;;10.45;4.60;;;13.10;99.90;;;13.29;69.15;101680.13;5115637;28;20051;-76
2022/12/07 09:59:28;;;;;;;12.75;4.32;;;13.10;99.90;;;13.39;66.77;101679.19;5115230;28;20039;-72
2022/12/07 10:02:29;;;;;;;9.63;4.07;;;13.20;99.90;;;13.63;66.69;101682.69;5115454;28;20096;-73
2022/12/07 10:04:59;;;;;;;10.00;4.60;;;13.40;99.90;;;13.80;64.88;101676.38;5115055;28;20048;-78
2022/12/07 10:07:31;;;;;;;8.57;4.38;;;13.50;99.90;;;14.09;64.18;101682.41;5097032;28;20481;-74
2022/12/07 10:09:59;;;;;;;9.05;4.28;;;13.80;99.90;;;14.18;63.03;101682.38;5115370;28;20389;-76
2022/12/07 10:12:27;;;;;;;16.90;4.63;;;14.00;99.90;;;13.95;62.62;101680.75;5114905;28;20047;-70
2022/12/07 10:15:02;;;;;;;9.38;4.55;;;13.90;99.90;;;13.66;61.98;101672.00;5114896;28;20055;-70
2022/12/07 10:17:51;;;;;;;7.72;4.07;;;13.50;99.90;;;13.92;62.45;101675.41;5115444;28;20126;-71
2022/12/07 10:20:24;;;;;;;10.90;4.00;;;13.60;99.90;;;14.11;60.90;101672.66;5114764;28;20069;-73
2022/12/07 10:23:01;;;;;;;9.77;3.60;;;13.90;99.90;;;13.61;59.62;101673.81;5114832;28;20089;-72
2022/12/07 10:25:34;;;;;;;8.13;4.00;;;13.50;99.90;;;13.18;60.09;101639.38;5115134;28;20043;-73
2022/12/07 10:28:15;;;;;;;9.95;3.95;;;13.20;99.90;;;13.38;59.56;101666.78;5114700;28;20118;-76
2022/12/07 10:31:01;;;;;;;12.25;4.15;;;13.10;99.90;;;12.49;61.15;101664.22;5114791;28;20075;-71
2022/12/07 10:33:38;;;;;;;9.75;3.80;;;12.40;99.90;;;12.31;62.42;101650.94;5115056;28;20050;-69
2022/12/07 10:36:23;;;;;;;8.23;3.55;;;12.20;99.90;;;12.65;62.87;101654.50;5114740;28;20097;-68
2022/12/07 10:39:00;;;;;;;10.10;3.53;;;12.30;99.90;;;12.89;62.30;101637.66;5114782;28;20082;-68
2022/12/07 10:41:28;;;;;;;7.80;3.80;;;12.70;99.90;;;13.08;61.73;101648.28;5114904;28;20206;-68
2022/12/07 10:43:58;;;;;;;14.38;4.22;;;12.90;99.90;;;12.37;61.72;101648.28;5114517;28;20036;-68